Time;durP1;ratioP1;P1;durP2;ratioP2;P2;SDS_P1;SDS_P2;PMS_P1;PMS_P2;Temp;Humidity;BMP_temperature;BMP_pressure;BME280_temperature;BME280_humidity;BME280_pressure;Samples;Min_cycle;Max_cycle;Signal;HPM_P1;HPM_P2
2023/01/26 00:00:54;;;;;;;24.40;11.32;;;;;;;4.11;82.43;101646.41;5009912;28;20504;-79
2023/01/26 00:03:20;;;;;;;17.73;10.63;;;;;;;4.25;81.51;101650.25;5010328;28;20034;-79
2023/01/26 00:05:46;;;;;;;21.50;11.10;;;;;;;4.31;80.75;101652.66;5010109;28;20034;-79
2023/01/26 00:08:12;;;;;;;23.55;12.18;;;;;;;4.34;80.20;101657.88;5010273;28;20025;-79
2023/01/26 00:10:39;;;;;;;17.00;11.80;;;;;;;4.27;80.00;101652.88;5010079;28;20034;-79
2023/01/26 00:13:06;;;;;;;18.58;10.75;;;;;;;4.15;80.25;101651.56;5009783;28;20100;-79
2023/01/26 00:15:33;;;;;;;17.77;10.73;;;;;;;4.24;80.50;101659.19;5009591;28;20494;-78
2023/01/26 00:17:59;;;;;;;18.33;11.10;;;;;;;4.28;80.07;101649.28;5009871;28;20022;-78
2023/01/26 00:20:26;;;;;;;18.65;11.10;;;;;;;4.32;79.95;101649.09;5010076;28;20036;-79
2023/01/26 00:22:51;;;;;;;17.67;10.48;;;;;;;4.31;79.43;101650.00;5009814;28;20029;-79
2023/01/26 00:25:17;;;;;;;20.58;10.25;;;;;;;4.42;79.78;101652.25;4991506;28;20193;-78
2023/01/26 00:27:42;;;;;;;15.35;10.02;;;;;;;4.21;79.57;101637.13;5009978;28;20029;-79
2023/01/26 00:30:08;;;;;;;20.70;11.68;;;;;;;4.21;80.04;101638.00;5009767;28;20034;-78
2023/01/26 00:32:35;;;;;;;17.45;10.15;;;;;;;4.22;80.22;101641.53;5010169;28;20030;-79
2023/01/26 00:35:01;;;;;;;18.73;11.23;;;;;;;4.22;80.24;101633.56;5009941;28;20030;-78
2023/01/26 00:37:26;;;;;;;16.38;11.20;;;;;;;4.17;80.78;101633.72;5008464;28;20512;-78
2023/01/26 00:39:52;;;;;;;17.58;10.43;;;;;;;4.19;80.40;101637.19;5010307;28;20057;-78
2023/01/26 00:42:20;;;;;;;23.10;12.38;;;;;;;4.17;80.59;101624.84;5009703;28;20049;-79
2023/01/26 00:44:46;;;;;;;20.15;10.68;;;;;;;4.24;80.33;101615.72;5009817;28;20026;-80
2023/01/26 00:47:13;;;;;;;22.98;11.63;;;;;;;4.21;80.46;101627.34;5010926;28;20030;-80
2023/01/26 00:49:38;;;;;;;17.17;10.68;;;;;;;4.21;80.42;101610.50;5010714;28;20237;-79
2023/01/26 00:52:05;;;;;;;21.88;12.00;;;;;;;4.19;80.89;101609.72;5009796;28;20057;-78
2023/01/26 00:54:31;;;;;;;23.00;12.10;;;;;;;4.29;81.16;101624.38;5009354;28;20084;-79
2023/01/26 00:56:57;;;;;;;18.17;12.10;;;;;;;4.21;80.63;101616.72;5009323;28;20029;-79
2023/01/26 00:59:22;;;;;;;22.30;11.77;;;;;;;4.14;80.98;101622.31;5009049;28;20026;-79
2023/01/26 01:01:48;;;;;;;21.20;11.95;;;;;;;4.14;81.14;101599.22;5009585;28;20030;-78
2023/01/26 01:04:15;;;;;;;20.02;12.60;;;;;;;4.29;80.78;101613.72;5012219;28;20042;-78
2023/01/26 01:06:40;;;;;;;25.90;13.15;;;;;;;4.24;80.87;101605.94;5013199;28;20029;-79
2023/01/26 01:09:06;;;;;;;18.85;12.27;;;;;;;4.21;80.86;101586.53;5013510;28;20026;-78
2023/01/26 01:11:31;;;;;;;20.38;11.93;;;;;;;4.27;80.59;101597.81;5011617;28;20038;-80
2023/01/26 01:13:57;;;;;;;24.85;13.20;;;;;;;4.14;80.96;101591.25;5013217;28;20037;-79
2023/01/26 01:16:23;;;;;;;26.20;12.40;;;;;;;4.31;81.12;101602.06;5012951;28;20053;-79
2023/01/26 01:18:52;;;;;;;18.60;12.73;;;;;;;4.32;80.59;101598.50;5012978;28;20037;-79
2023/01/26 01:21:18;;;;;;;19.70;11.48;;;;;;;4.37;80.79;101593.84;5012657;28;20021;-78
2023/01/26 01:23:43;;;;;;;26.55;13.63;;;;;;;4.37;80.32;101615.16;5012616;28;20030;-78
2023/01/26 01:26:10;;;;;;;22.48;13.30;;;;;;;4.45;80.74;101603.31;5012788;28;20092;-78
2023/01/26 01:28:36;;;;;;;24.50;13.27;;;;;;;4.43;80.75;101600.75;5012726;28;20128;-79
2023/01/26 01:31:06;;;;;;;23.63;13.82;;;;;;;4.59;80.92;101603.63;5012644;28;20161;-80
2023/01/26 01:33:31;;;;;;;30.52;15.80;;;;;;;4.56;80.75;101606.41;5012571;28;20038;-78
2023/01/26 01:36:01;;;;;;;27.33;14.27;;;;;;;4.64;80.81;101604.31;5012877;28;20505;-79
2023/01/26 01:38:27;;;;;;;26.13;14.10;;;;;;;4.83;81.06;101599.97;5012473;28;20693;-79
2023/01/26 01:40:53;;;;;;;25.92;14.27;;;;;;;4.90;80.15;101596.09;5012801;28;20034;-79
2023/01/26 01:43:19;;;;;;;23.10;14.10;;;;;;;5.01;79.55;101599.19;5012816;28;20034;-78
2023/01/26 01:45:46;;;;;;;24.08;13.73;;;;;;;5.20;79.18;101604.59;5012965;28;20032;-80
2023/01/26 01:48:27;;;;;;;22.35;12.45;;;;;;;5.30;78.38;101596.09;5013519;28;20033;-79
2023/01/26 01:50:57;;;;;;;26.50;12.77;;;;;;;5.38;78.20;101593.09;5014556;28;20026;-78
2023/01/26 01:53:31;;;;;;;23.02;12.23;;;;;;;5.30;78.23;101580.09;5013674;28;20118;-80
2023/01/26 01:56:04;;;;;;;17.80;9.25;;;;;;;5.34;77.93;101584.38;5012521;28;20025;-78
2023/01/26 01:58:33;;;;;;;15.23;10.07;;;;;;;5.24;77.75;101577.69;5012545;28;20148;-79
2023/01/26 02:00:58;;;;;;;17.00;9.52;;;;;;;5.28;77.85;101583.75;5012381;28;20041;-80
2023/01/26 02:03:25;;;;;;;16.33;9.77;;;;;;;5.36;78.12;101579.81;5012091;28;20030;-80
2023/01/26 02:06:03;;;;;;;15.50;10.18;;;;;;;5.45;78.43;101583.88;5012785;28;20425;-81
2023/01/26 02:08:35;;;;;;;15.45;9.65;;;;;;;5.49;78.25;101586.34;5012289;28;20022;-79
2023/01/26 02:11:03;;;;;;;;;;;;;;;5.57;78.20;101587.78;5012907;28;20806;-80
2023/01/26 02:13:30;;;;;;;22.05;10.95;;;;;;;5.52;77.69;101585.34;5012468;28;19921;-79
2023/01/26 02:15:58;;;;;;;18.02;10.43;;;;;;;5.47;77.77;101577.53;5011772;28;20397;-80
2023/01/26 02:18:24;;;;;;;17.05;10.75;;;;;;;5.52;78.22;101565.78;5019936;28;20049;-80
2023/01/26 02:20:53;;;;;;;15.57;9.95;;;;;;;5.49;78.15;101554.31;5033217;28;20014;-81
2023/01/26 02:23:43;;;;;;;20.55;10.98;;;;;;;5.61;77.67;101560.03;5036581;28;20041;-79
2023/01/26 02:26:15;;;;;;;19.58;10.70;;;;;;;5.60;77.64;101555.63;5036812;28;20153;-80
2023/01/26 02:28:42;;;;;;;17.75;11.18;;;;;;;5.51;77.51;101543.56;5025733;28;20485;-78
2023/01/26 02:31:09;;;;;;;22.25;13.30;;;;;;;5.44;76.98;101540.31;5015868;28;20021;-78
2023/01/26 02:33:35;;;;;;;42.08;19.40;;;;;;;5.27;77.12;101537.56;5014737;28;20022;-79
2023/01/26 02:36:04;;;;;;;26.65;13.13;;;;;;;5.04;77.63;101521.72;5011280;28;20103;-78
2023/01/26 02:38:39;;;;;;;23.02;13.73;;;;;;;4.96;78.39;101537.19;5012040;28;20041;-79
2023/01/26 02:41:11;;;;;;;28.52;13.40;;;;;;;4.71;78.72;101510.72;5011656;28;20030;-79
2023/01/26 02:43:37;;;;;;;30.48;14.90;;;;;;;4.79;79.51;101534.38;5012193;28;20040;-79
2023/01/26 02:46:03;;;;;;;27.92;14.30;;;;;;;4.80;79.41;101514.81;5011569;28;20440;-79
2023/01/26 02:51:12;;;;;;;28.85;14.40;;;;;;;4.84;79.72;101522.59;5015011;28;20501;-79
2023/01/26 02:53:38;;;;;;;26.50;13.95;;;;;;;4.79;79.48;101540.59;5014046;28;20034;-79
2023/01/26 02:56:04;;;;;;;29.10;15.27;;;;;;;4.76;80.05;101537.19;5012065;28;20034;-78
2023/01/26 02:58:29;;;;;;;27.13;14.70;;;;;;;4.85;80.10;101535.00;5011693;28;20029;-79
2023/01/26 03:00:55;;;;;;;24.73;14.45;;;;;;;4.91;79.76;101528.53;5011095;28;20037;-78
2023/01/26 03:03:23;;;;;;;25.27;14.23;;;;;;;4.99;79.78;101523.72;5011777;28;20022;-77
2023/01/26 03:05:49;;;;;;;29.42;13.43;;;;;;;5.02;79.69;101536.91;5011375;28;20033;-80
2023/01/26 03:08:15;;;;;;;33.88;15.52;;;;;;;4.99;79.53;101537.03;5011068;28;20033;-80
2023/01/26 03:10:40;;;;;;;27.52;14.75;;;;;;;5.02;79.81;101520.91;5010927;28;20030;-79
2023/01/26 03:13:06;;;;;;;24.85;14.52;;;;;;;5.11;79.75;101525.84;5010021;28;20405;-78
2023/01/26 03:15:51;;;;;;;28.88;13.88;;;;;;;5.08;80.11;101517.97;5010830;28;20026;-78
2023/01/26 03:29:25;;;;;;;25.45;14.00;;;;;;;5.35;78.56;101508.72;5010004;28;20096;-80
2023/01/26 03:31:51;;;;;;;28.40;15.35;;;;;;;5.53;78.67;101519.50;5010482;28;20486;-79
2023/01/26 03:34:17;;;;;;;27.25;14.07;;;;;;;5.65;78.52;101532.28;5010473;28;20080;-80
2023/01/26 03:36:42;;;;;;;33.35;13.77;;;;;;;5.73;78.53;101517.63;5010181;28;20038;-80
2023/01/26 03:39:08;;;;;;;24.17;14.73;;;;;;;5.73;77.90;101519.44;5010274;28;20033;-79
2023/01/26 03:58:01;;;;;;;24.20;14.65;;;;;;;5.64;77.03;101527.88;5010894;28;20103;-81
2023/01/26 04:00:26;;;;;;;28.42;14.20;;;;;;;5.58;76.95;101525.47;5009805;28;20025;-79
2023/01/26 04:08:22;;;;;;;33.20;16.00;;;;;;;5.41;78.12;101505.78;5009895;28;20091;-79
2023/01/26 04:10:50;;;;;;;26.45;14.40;;;;;;;5.49;78.29;101514.31;5009434;28;20084;-79
2023/01/26 04:21:36;;;;;;;27.17;15.18;;;;;;;5.87;77.90;101495.66;5010000;28;20056;-79
2023/01/26 04:24:12;;;;;;;24.83;14.55;;;;;;;5.87;77.47;101487.66;5010295;28;20030;-79
2023/01/26 04:26:39;;;;;;;29.52;15.85;;;;;;;5.95;77.56;101488.13;5009835;28;20088;-82
2023/01/26 04:29:08;;;;;;;30.30;17.42;;;;;;;6.15;77.09;101506.72;5009480;28;20049;-79
2023/01/26 04:31:33;;;;;;;43.53;21.92;;;;;;;6.19;77.08;101500.28;5009324;28;20029;-82
2023/01/26 04:34:00;;;;;;;39.63;19.10;;;;;;;6.22;76.65;101509.94;5009778;28;20030;-79
2023/01/26 04:36:25;;;;;;;47.88;22.58;;;;;;;6.16;76.24;101489.75;5009757;28;20116;-81
2023/01/26 04:38:51;;;;;;;33.70;19.25;;;;;;;6.16;76.23;101502.22;5011782;28;20513;-79
2023/01/26 04:41:17;;;;;;;31.42;18.10;;;;;;;6.16;76.49;101495.09;5013446;28;20029;-80
2023/01/26 04:43:42;;;;;;;37.53;23.25;;;;;;;6.26;76.60;101498.19;5013846;28;20025;-80
2023/01/26 04:46:08;;;;;;;36.03;20.70;;;;;;;6.32;76.01;101503.22;5013594;28;20405;-81
2023/01/26 04:48:35;;;;;;;35.58;19.90;;;;;;;6.23;76.28;101495.66;5014054;28;20029;-83
2023/01/26 04:51:03;;;;;;;31.98;18.17;;;;;;;6.30;76.37;101503.28;5013491;28;20029;-79
2023/01/26 04:53:30;;;;;;;36.25;18.67;;;;;;;6.29;76.83;101498.91;5014560;28;20034;-81
2023/01/26 04:55:56;;;;;;;42.20;21.08;;;;;;;6.33;76.33;101495.13;5016919;28;20113;-83
2023/01/26 04:58:21;;;;;;;33.42;19.35;;;;;;;6.33;76.32;101487.09;5016390;28;20049;-81
2023/01/26 05:00:51;;;;;;;40.45;19.75;;;;;;;6.40;76.09;101501.03;5013206;28;20033;-80
2023/01/26 05:03:16;;;;;;;37.30;19.48;;;;;;;6.39;76.14;101497.47;5013262;28;20129;-80
2023/01/26 05:05:42;;;;;;;48.38;24.23;;;;;;;6.36;75.80;101494.94;5013110;28;20095;-79
2023/01/26 05:08:07;;;;;;;33.80;20.98;;;;;;;6.41;75.69;101484.94;5013046;28;20037;-81
2023/01/26 05:10:33;;;;;;;41.13;21.92;;;;;;;6.27;76.05;101483.91;5012736;28;20033;-80
2023/01/26 05:12:58;;;;;;;32.15;17.88;;;;;;;6.24;75.49;101471.53;5012923;28;20028;-79
2023/01/26 05:15:24;;;;;;;36.05;20.38;;;;;;;6.24;75.75;101484.88;5012628;28;20478;-78
2023/01/26 05:17:50;;;;;;;44.45;23.02;;;;;;;6.30;75.79;101483.75;5012761;28;20030;-78
2023/01/26 05:20:16;;;;;;;43.63;23.02;;;;;;;6.25;75.61;101483.94;5012968;28;20033;-79
2023/01/26 05:22:42;;;;;;;34.88;19.33;;;;;;;6.25;76.17;101483.94;5012053;28;20441;-78
2023/01/26 05:25:08;;;;;;;29.73;17.88;;;;;;;6.13;76.50;101487.22;5012631;28;20069;-76
2023/01/26 05:27:34;;;;;;;32.67;18.15;;;;;;;6.02;76.01;101476.22;5012308;28;20030;-78
2023/01/26 05:29:59;;;;;;;41.85;20.65;;;;;;;6.07;76.21;101479.53;5012341;28;20033;-79
2023/01/26 05:32:26;;;;;;;41.00;20.23;;;;;;;6.05;76.40;101500.09;5010682;28;20121;-77
2023/01/26 05:34:52;;;;;;;44.35;23.23;;;;;;;6.03;76.54;101494.81;5013561;28;20037;-79
2023/01/26 05:37:17;;;;;;;48.67;27.58;;;;;;;6.03;76.48;101493.97;5013398;28;20026;-78
2023/01/26 05:39:43;;;;;;;50.78;27.08;;;;;;;6.02;76.67;101494.91;5013179;28;20069;-78
2023/01/26 05:42:11;;;;;;;45.67;26.90;;;;;;;6.07;76.48;101498.22;5012676;28;20025;-78
2023/01/26 05:44:36;;;;;;;52.72;26.58;;;;;;;5.97;76.66;101504.94;5012895;28;20058;-78
2023/01/26 05:47:02;;;;;;;51.05;26.70;;;;;;;5.86;76.18;101493.91;5012949;28;20026;-78
2023/01/26 05:49:27;;;;;;;49.60;26.65;;;;;;;5.81;76.31;101493.25;5012588;28;20034;-77
2023/01/26 05:51:53;;;;;;;53.03;26.60;;;;;;;5.79;76.86;101492.44;5012768;28;20044;-77
2023/01/26 05:54:18;;;;;;;45.53;25.40;;;;;;;5.78;76.83;101482.72;5013167;28;20030;-81
2023/01/26 05:56:43;;;;;;;42.08;23.05;;;;;;;5.77;76.91;101489.00;5015091;28;20081;-81
2023/01/26 05:59:09;;;;;;;48.15;23.30;;;;;;;5.74;76.85;101484.66;5011064;28;20429;-79
2023/01/26 06:01:34;;;;;;;43.08;21.92;;;;;;;5.73;76.97;101490.06;5011493;28;20101;-84
2023/01/26 06:04:00;;;;;;;47.60;24.20;;;;;;;5.61;77.23;101488.84;5008467;28;20474;-78
2023/01/26 06:06:26;;;;;;;48.58;26.40;;;;;;;5.59;77.57;101490.75;4999531;28;20041;-78
2023/01/26 06:08:51;;;;;;;54.40;27.17;;;;;;;5.61;77.96;101498.66;4992859;28;20454;-77
2023/01/26 06:11:17;;;;;;;50.60;26.67;;;;;;;5.69;78.02;101492.00;4989414;28;20052;-80
2023/01/26 06:13:42;;;;;;;52.45;26.52;;;;;;;5.68;78.24;101476.09;4992362;28;20489;-80
2023/01/26 06:16:08;;;;;;;46.90;24.13;;;;;;;5.71;78.43;101483.94;4996551;28;20035;-80
2023/01/26 06:18:33;;;;;;;44.13;26.13;;;;;;;5.93;78.21;101500.72;5016244;28;20179;-79
2023/01/26 06:21:02;;;;;;;49.10;25.17;;;;;;;6.00;77.90;101488.75;4999521;28;20161;-80
2023/01/26 06:23:28;;;;;;;44.72;25.40;;;;;;;6.12;77.49;101490.84;4993676;28;20038;-81
2023/01/26 06:25:58;;;;;;;40.72;25.42;;;;;;;6.21;77.13;101479.69;5011238;28;20054;-83
2023/01/26 06:28:23;;;;;;;42.33;25.80;;;;;;;6.23;76.56;101476.97;5014720;28;20029;-80
2023/01/26 06:30:48;;;;;;;49.95;26.17;;;;;;;6.31;76.89;101485.44;5032695;28;20037;-82
2023/01/26 06:33:14;;;;;;;47.78;29.45;;;;;;;6.31;76.63;101462.28;5037182;28;20038;-82
2023/01/26 06:35:39;;;;;;;50.35;27.88;;;;;;;6.40;76.54;101472.50;5033473;28;20026;-81
2023/01/26 06:38:05;;;;;;;48.53;27.17;;;;;;;6.38;76.28;101461.03;5020733;28;20119;-82
2023/01/26 06:40:31;;;;;;;47.78;28.17;;;;;;;6.47;76.03;101476.59;5021473;28;20029;-82
2023/01/26 06:42:56;;;;;;;54.05;29.30;;;;;;;6.52;75.58;101477.22;5015800;28;20113;-80
2023/01/26 06:45:22;;;;;;;50.80;26.70;;;;;;;6.55;75.91;101478.88;5012313;28;20038;-81
2023/01/26 06:47:49;;;;;;;49.60;27.63;;;;;;;6.64;75.95;101475.72;5012152;28;20037;-82
2023/01/26 06:50:18;;;;;;;52.00;28.52;;;;;;;6.65;75.29;101479.25;5011890;28;20129;-80
2023/01/26 06:52:46;;;;;;;43.72;23.95;;;;;;;6.44;75.64;101474.09;5011872;28;20037;-81
2023/01/26 06:55:28;;;;;;;38.22;22.50;;;;;;;6.50;75.81;101468.44;4996097;28;20085;-80
2023/01/26 06:57:54;;;;;;;39.83;21.83;;;;;;;6.72;75.21;101472.66;5020866;28;20030;-81
2023/01/26 07:00:20;;;;;;;37.60;19.30;;;;;;;6.65;75.27;101468.56;5019183;28;20049;-81
2023/01/26 07:02:45;;;;;;;37.67;21.73;;;;;;;6.75;75.32;101461.81;5011135;28;20028;-81
2023/01/26 07:05:11;;;;;;;49.28;31.05;;;;;;;6.86;74.79;101457.63;5011469;28;20108;-82
2023/01/26 07:07:36;;;;;;;40.92;21.05;;;;;;;6.86;74.43;101462.09;5011381;28;20020;-82
2023/01/26 07:10:05;;;;;;;39.22;21.02;;;;;;;6.81;74.11;101461.47;5009595;28;20026;-81
2023/01/26 07:12:42;;;;;;;45.08;21.30;;;;;;;6.79;74.77;101450.84;5011457;28;20494;-82
2023/01/26 07:15:10;;;;;;;38.45;19.95;;;;;;;6.93;74.70;101442.97;5011028;28;20022;-81
2023/01/26 07:17:36;;;;;;;47.80;22.80;;;;;;;7.09;73.81;101453.72;5011209;28;20503;-81
2023/01/26 07:20:01;;;;;;;46.25;25.65;;;;;;;7.12;73.86;101443.69;5010895;28;20029;-81
2023/01/26 07:22:27;;;;;;;47.95;25.85;;;;;;;7.16;73.64;101449.75;5010841;28;20122;-82
2023/01/26 07:24:52;;;;;;;47.65;26.88;;;;;;;7.18;73.41;101437.19;5010414;28;20029;-82
2023/01/26 07:27:17;;;;;;;55.25;29.13;;;;;;;7.19;73.24;101438.88;5010826;28;20072;-81
2023/01/26 07:29:45;;;;;;;52.13;29.00;;;;;;;7.24;73.57;101449.34;5010877;28;20084;-81
2023/01/26 07:32:11;;;;;;;51.80;25.80;;;;;;;7.19;73.56;101454.94;5010736;28;20639;-81
2023/01/26 07:34:36;;;;;;;49.92;26.58;;;;;;;7.18;73.43;101439.84;5010602;28;20061;-81
2023/01/26 07:37:02;;;;;;;45.08;23.70;;;;;;;7.15;73.42;101431.13;5010232;28;20057;-82
2023/01/26 07:39:27;;;;;;;45.25;25.55;;;;;;;7.17;73.65;101434.56;5010844;28;20371;-81
2023/01/26 07:41:53;;;;;;;51.20;26.58;;;;;;;7.23;73.16;101432.44;5010638;28;20034;-81
2023/01/26 07:44:18;;;;;;;62.08;27.35;;;;;;;7.17;73.57;101431.91;5011071;28;20046;-81
2023/01/26 07:46:44;;;;;;;56.80;29.08;;;;;;;7.21;73.32;101423.63;5010180;28;20104;-82
2023/01/26 07:49:10;;;;;;;58.00;28.60;;;;;;;7.21;73.99;101418.28;5010650;28;20120;-82
2023/01/26 07:51:36;;;;;;;56.75;29.42;;;;;;;7.32;74.23;101418.56;5010589;28;20124;-81
2023/01/26 07:54:02;;;;;;;72.43;30.63;;;;;;;7.42;73.54;101408.19;5010396;28;20668;-83
2023/01/26 07:56:28;;;;;;;56.17;31.48;;;;;;;7.37;73.74;101388.88;5016825;28;20034;-81
2023/01/26 07:58:54;;;;;;;67.18;34.03;;;;;;;7.33;73.66;101398.88;5019768;28;20815;-81
2023/01/26 08:01:20;;;;;;;55.65;31.08;;;;;;;7.29;74.25;101391.97;5017772;28;20026;-81
2023/01/26 08:03:49;;;;;;;52.15;31.30;;;;;;;7.38;74.01;101391.44;5009404;28;20481;-81
2023/01/26 08:06:16;;;;;;;56.83;31.80;;;;;;;7.34;74.27;101397.06;5010524;28;20053;-81
2023/01/26 08:08:41;;;;;;;64.22;33.13;;;;;;;7.34;73.93;101389.88;5010076;28;20022;-81
2023/01/26 08:11:08;;;;;;;77.07;32.30;;;;;;;7.45;73.86;101400.88;5015906;28;20022;-81
2023/01/26 08:13:34;;;;;;;59.45;31.50;;;;;;;7.52;74.55;101399.56;5009461;28;20032;-82
2023/01/26 08:16:13;;;;;;;60.42;32.78;;;;;;;7.50;74.28;101396.09;5009006;28;20124;-82
2023/01/26 08:18:44;;;;;;;64.75;29.27;;;;;;;7.62;74.32;101406.13;5010137;28;20025;-82
2023/01/26 08:21:11;;;;;;;69.18;33.45;;;;;;;7.64;74.23;101398.84;5010799;28;20077;-82
2023/01/26 08:23:37;;;;;;;80.03;41.45;;;;;;;7.57;74.17;101402.84;5025351;28;20030;-82
2023/01/26 08:26:05;;;;;;;66.05;35.47;;;;;;;7.56;74.35;101417.19;5010658;28;20154;-82
2023/01/26 08:28:31;;;;;;;62.45;34.83;;;;;;;7.61;74.30;101415.09;5009840;28;20389;-83
2023/01/26 08:31:03;;;;;;;65.50;34.65;;;;;;;7.78;73.50;101432.03;5010012;28;20022;-82
2023/01/26 08:33:30;;;;;;;58.00;31.65;;;;;;;7.79;73.91;101423.91;5009973;28;20026;-82
2023/01/26 08:36:03;;;;;;;59.25;31.73;;;;;;;7.92;73.17;101422.25;5010700;28;20034;-81
2023/01/26 08:38:30;;;;;;;71.38;30.02;;;;;;;7.95;73.05;101434.63;5010033;28;20068;-81
2023/01/26 08:40:56;;;;;;;69.43;32.92;;;;;;;7.92;72.56;101432.13;5009922;28;20026;-82
2023/01/26 08:43:22;;;;;;;51.60;31.10;;;;;;;7.89;72.88;101418.91;5010474;28;20564;-82
2023/01/26 08:45:47;;;;;;;61.35;29.90;;;;;;;8.01;72.55;101419.03;5009777;28;20100;-82
2023/01/26 08:48:12;;;;;;;62.63;33.65;;;;;;;8.00;72.85;101397.72;5009825;28;20041;-81
2023/01/26 08:50:38;;;;;;;53.97;31.25;;;;;;;8.08;72.58;101390.94;5010099;28;20042;-82
2023/01/26 08:53:03;;;;;;;67.03;32.92;;;;;;;8.25;72.58;101400.66;5011460;28;20069;-82
2023/01/26 08:55:31;;;;;;;60.35;32.55;;;;;;;8.25;72.71;101400.66;5010049;28;20029;-82
2023/01/26 08:57:57;;;;;;;68.35;33.38;;;;;;;8.10;72.67;101393.53;5015489;28;20033;-82
2023/01/26 09:00:24;;;;;;;84.72;42.75;;;;;;;8.19;72.99;101390.31;5017696;28;20581;-82
2023/01/26 09:02:50;;;;;;;78.65;36.70;;;;;;;8.16;73.68;101382.47;5015653;28;20029;-82
2023/01/26 09:05:16;;;;;;;64.63;35.85;;;;;;;8.25;73.64;101373.00;5009977;28;20037;-82
2023/01/26 09:07:42;;;;;;;60.78;34.25;;;;;;;8.39;74.01;101357.84;5009458;28;20030;-83
2023/01/26 09:10:08;;;;;;;72.45;36.97;;;;;;;8.45;74.15;101349.44;5010285;28;20036;-82
2023/01/26 09:12:33;;;;;;;70.15;34.78;;;;;;;8.63;74.29;101356.34;5009487;28;20022;-82
2023/01/26 09:14:59;;;;;;;81.70;35.85;;;;;;;8.70;73.81;101352.34;5009679;28;20052;-83
2023/01/26 09:17:24;;;;;;;70.13;36.95;;;;;;;8.77;73.62;101360.00;5010146;28;20405;-81
2023/01/26 09:19:49;;;;;;;70.97;39.70;;;;;;;8.78;73.25;101343.78;5008021;28;20493;-82
2023/01/26 09:22:15;;;;;;;77.78;40.83;;;;;;;8.78;73.28;101346.47;5009960;28;20382;-82
2023/01/26 09:24:40;;;;;;;67.82;38.45;;;;;;;8.82;72.96;101336.41;5010991;28;20099;-82
2023/01/26 09:27:06;;;;;;;77.28;40.85;;;;;;;8.82;73.13;101344.47;5012950;28;20054;-82
2023/01/26 09:29:31;;;;;;;77.35;39.95;;;;;;;8.83;73.66;101338.16;5012951;28;20042;-81
2023/01/26 09:31:57;;;;;;;74.82;37.70;;;;;;;8.82;73.27;101321.19;5014149;28;20617;-81
2023/01/26 09:34:24;;;;;;;82.63;41.85;;;;;;;8.86;73.69;101321.88;5013186;28;20028;-82
2023/01/26 09:36:50;;;;;;;76.57;41.35;;;;;;;8.95;73.94;101315.91;5012605;28;20124;-81
2023/01/26 09:39:15;;;;;;;80.55;41.63;;;;;;;8.86;73.94;101316.50;5012953;28;20489;-82
2023/01/26 09:41:59;;;;;;;77.05;40.60;;;;;;;8.83;74.20;101320.25;5012969;28;20121;-82
2023/01/26 09:44:27;;;;;;;99.50;46.33;;;;;;;8.87;74.56;101308.34;5013480;28;20095;-83
2023/01/26 09:47:11;;;;;;;80.20;45.08;;;;;;;8.89;74.80;101303.75;5011789;28;20438;-82
2023/01/26 09:49:42;;;;;;;90.97;48.60;;;;;;;8.94;74.70;101288.22;5013506;28;20026;-81
2023/01/26 09:52:15;;;;;;;92.07;50.83;;;;;;;8.88;75.25;101295.81;5012984;28;20464;-82
2023/01/26 09:54:52;;;;;;;103.57;53.75;;;;;;;8.89;75.23;101290.34;5012819;28;20050;-82
2023/01/26 09:57:46;;;;;;;107.15;54.75;;;;;;;8.91;75.75;101279.50;5013569;28;20052;-82
2023/01/26 10:00:14;;;;;;;87.53;45.10;;;;;;;8.68;76.10;101265.72;4981949;28;20035;-83
2023/01/26 10:02:52;;;;;;;82.82;40.03;;;;;;;8.55;77.76;101256.75;4984982;28;20047;-82
2023/01/26 10:05:21;;;;;;;68.78;34.90;;;;;;;8.53;79.57;101250.63;4974382;28;20126;-80
2023/01/26 10:07:47;;;;;;;81.72;38.47;;;;;;;8.62;80.00;101258.06;4971306;28;20035;-82
2023/01/26 10:10:22;;;;;;;65.28;32.55;;;;;;;8.54;80.72;101238.06;4970566;28;20509;-82
2023/01/26 10:12:50;;;;;;;62.70;30.23;;;;;;;8.57;81.94;101248.59;4970941;28;20039;-82
2023/01/26 10:15:24;;;;;;;54.35;28.40;;;;;;;8.55;82.50;101248.72;4970890;28;20031;-81
2023/01/26 10:17:53;;;;;;;43.47;21.30;;;;;;;8.56;83.92;101244.22;4970845;28;20050;-83
2023/01/26 10:20:31;;;;;;;45.80;20.08;;;;;;;8.67;85.00;101247.06;4971199;28;20110;-83
2023/01/26 10:23:03;;;;;;;29.90;16.80;;;;;;;8.55;85.07;101215.69;4971043;28;20138;-82
2023/01/26 10:25:30;;;;;;;43.15;16.13;;;;;;;8.62;85.50;101227.75;4970526;28;20043;-82
2023/01/26 10:27:55;;;;;;;36.30;16.48;;;;;;;8.71;85.95;101233.34;4972225;28;20093;-82
2023/01/26 10:30:21;;;;;;;33.97;16.33;;;;;;;8.76;85.73;101214.31;4934267;29;20047;-81
2023/01/26 10:32:51;;;;;;;30.73;16.17;;;;;;;8.85;85.18;101204.78;4934356;29;20076;-82
2023/01/26 10:35:23;;;;;;;38.65;16.88;;;;;;;8.95;84.97;101208.63;4932232;29;20036;-82
2023/01/26 10:37:51;;;;;;;31.48;14.75;;;;;;;8.99;85.44;101186.00;4977020;28;20074;-82
2023/01/26 10:40:17;;;;;;;33.45;16.02;;;;;;;8.98;84.06;101181.59;4991386;28;20049;-81
2023/01/26 10:42:54;;;;;;;36.85;16.15;;;;;;;9.10;83.37;101181.63;4992484;28;20034;-82
2023/01/26 10:45:23;;;;;;;32.45;14.50;;;;;;;9.23;82.82;101200.47;4999425;28;20129;-82
2023/01/26 10:48:12;;;;;;;31.15;14.25;;;;;;;9.05;83.05;101178.38;5016074;28;20081;-83
2023/01/26 10:50:38;;;;;;;21.02;13.43;;;;;;;9.08;83.30;101182.72;5015604;28;20142;-82
2023/01/26 10:53:04;;;;;;;26.77;13.75;;;;;;;9.07;83.41;101180.97;5003036;28;20034;-83
2023/01/26 10:55:32;;;;;;;31.98;13.45;;;;;;;9.15;82.56;101184.00;5003096;28;20042;-82
2023/01/26 10:57:57;;;;;;;31.10;13.68;;;;;;;9.09;81.95;101173.66;5000210;28;20137;-82
2023/01/26 11:00:27;;;;;;;29.70;13.90;;;;;;;9.22;81.52;101190.69;4994567;28;20057;-82
2023/01/26 11:03:16;;;;;;;34.22;14.00;;;;;;;9.18;81.81;101173.06;4984927;28;20056;-81
2023/01/26 11:05:43;;;;;;;39.30;13.95;;;;;;;9.17;81.74;101166.00;5019476;28;20089;-82
2023/01/26 11:08:38;;;;;;;29.05;13.77;;;;;;;9.15;80.88;101170.56;5016513;28;20126;-82
2023/01/26 11:11:09;;;;;;;21.17;13.23;;;;;;;9.08;80.58;101174.66;5013318;28;20112;-81
2023/01/26 11:13:35;;;;;;;30.55;12.18;;;;;;;9.12;79.94;101168.09;5011407;28;20248;-83
2023/01/26 11:16:21;;;;;;;29.67;12.15;;;;;;;9.13;80.17;101175.19;5010838;28;20021;-81
2023/01/26 11:19:01;;;;;;;19.42;10.82;;;;;;;9.09;80.37;101179.91;5010714;28;20041;-84
2023/01/26 11:21:56;;;;;;;26.05;12.27;;;;;;;9.05;79.85;101172.19;5010780;28;20080;-82
2023/01/26 11:24:32;;;;;;;26.48;13.25;;;;;;;9.01;80.02;101181.38;4969132;28;20070;-81
2023/01/26 11:27:00;;;;;;;34.20;14.23;;;;;;;9.04;80.15;101165.94;4968474;28;20134;-82
2023/01/26 11:29:41;;;;;;;29.88;13.57;;;;;;;9.04;80.16;101176.69;4968717;28;20043;-82
2023/01/26 11:32:47;;;;;;;35.22;15.63;;;;;;;9.00;80.19;101174.28;4968902;28;20053;-82
2023/01/26 11:35:27;;;;;;;28.88;13.90;;;;;;;8.96;80.05;101178.16;4931041;29;20059;-82
2023/01/26 11:37:55;;;;;;;29.63;13.45;;;;;;;9.01;79.74;101176.00;4930568;29;20135;-82
2023/01/26 11:40:39;;;;;;;34.42;14.25;;;;;;;9.08;79.22;101167.44;4930596;29;20043;-82
2023/01/26 11:43:23;;;;;;;29.38;12.70;;;;;;;9.10;78.99;101159.31;4930289;29;20464;-83
2023/01/26 11:46:06;;;;;;;23.40;12.73;;;;;;;9.09;79.13;101153.06;4930800;29;20179;-81
2023/01/26 11:48:56;;;;;;;24.95;13.25;;;;;;;9.09;79.24;101147.72;4930377;29;20050;-82
2023/01/26 11:51:37;;;;;;;28.85;13.10;;;;;;;9.20;79.03;101149.69;4930389;29;20031;-81
2023/01/26 11:54:05;;;;;;;33.40;13.13;;;;;;;9.24;77.40;101152.03;4930322;29;20061;-81
2023/01/26 11:56:53;;;;;;;20.25;12.98;;;;;;;9.30;76.80;101148.94;4930683;29;20080;-82
2023/01/26 11:59:31;;;;;;;27.17;12.13;;;;;;;9.38;76.30;101153.81;4929915;29;20087;-82
2023/01/26 12:02:19;;;;;;;26.48;12.98;;;;;;;9.42;76.79;101147.25;4962409;28;20098;-81
2023/01/26 12:04:45;;;;;;;22.50;12.88;;;;;;;9.48;76.21;101154.03;4979560;28;20497;-82
2023/01/26 12:07:20;;;;;;;27.25;11.82;;;;;;;9.47;75.61;101131.69;4965372;28;20470;-82